createdAt,value
2019-03-28T00:00:46.966Z,21.70
2019-03-28T00:03:28.817Z,21.27
2019-03-28T00:06:10.731Z,22.07
2019-03-28T00:08:52.669Z,21.37
2019-03-28T00:11:34.650Z,21.47
2019-03-28T00:14:16.526Z,21.47
2019-03-28T00:16:48.180Z,21.23
2019-03-28T00:19:36.668Z,20.50
2019-03-28T00:25:23.234Z,20.23
2019-03-28T00:28:05.263Z,19.70
2019-03-28T00:30:47.269Z,20.83
2019-03-28T00:33:29.224Z,20.60
2019-03-28T00:36:12.603Z,18.97
2019-03-28T00:38:43.621Z,22.10
2019-03-28T00:41:33.147Z,21.10
2019-03-28T00:44:16.088Z,21.23
2019-03-28T00:46:58.488Z,21.53
2019-03-28T00:49:29.436Z,22.57
2019-03-28T00:52:19.045Z,21.83
2019-03-28T00:55:01.171Z,21.70
2019-03-28T00:57:43.165Z,22.47
2019-03-28T01:00:25.319Z,21.97
2019-03-28T01:03:07.573Z,21.10
2019-03-28T01:05:50.672Z,21.83
2019-03-28T01:08:32.846Z,21.27
2019-03-28T01:11:15.058Z,22.17
2019-03-28T01:13:58.012Z,20.60
2019-03-28T01:16:40.074Z,20.67
2019-03-28T01:19:22.212Z,22.13
2019-03-28T01:22:06.173Z,23.63
2019-03-28T01:24:48.438Z,21.23
2019-03-28T01:27:30.451Z,22.43
2019-03-28T01:30:12.815Z,23.03
2019-03-28T01:32:54.819Z,23.97
2019-03-28T01:35:36.652Z,24.83
2019-03-28T01:38:18.349Z,23.83
2019-03-28T01:41:00.147Z,23.13
2019-03-28T01:43:42.082Z,23.10
2019-03-28T01:46:23.939Z,25.07
2019-03-28T01:49:06.000Z,23.33
2019-03-28T01:51:48.291Z,23.30
2019-03-28T01:54:30.456Z,24.50
2019-03-28T01:57:10.752Z,23.60
2019-03-28T01:59:54.171Z,22.80
2019-03-28T02:02:38.161Z,23.63
2019-03-28T02:05:20.698Z,24.00
2019-03-28T02:08:02.912Z,24.60
2019-03-28T02:10:45.061Z,25.57
2019-03-28T02:13:27.697Z,25.37
2019-03-28T02:16:09.668Z,25.43
2019-03-28T02:18:51.423Z,27.03
2019-03-28T02:21:22.518Z,25.83
2019-03-28T02:23:53.311Z,25.70
2019-03-28T02:26:35.627Z,27.30
2019-03-28T02:29:07.259Z,26.77
2019-03-28T02:31:55.279Z,28.60
2019-03-28T02:34:26.540Z,27.40
2019-03-28T02:37:10.078Z,27.23
2019-03-28T02:39:52.167Z,27.37
2019-03-28T02:42:34.321Z,28.17
2019-03-28T02:45:16.240Z,27.83
2019-03-28T02:47:58.401Z,26.93
2019-03-28T02:50:40.511Z,25.33
2019-03-28T02:53:22.278Z,26.27
2019-03-28T02:56:05.578Z,26.03
2019-03-28T02:58:47.539Z,27.80
2019-03-28T03:01:30.401Z,26.30
2019-03-28T03:04:12.491Z,26.93
2019-03-28T03:06:54.817Z,26.27
2019-03-28T03:09:37.039Z,24.97
2019-03-28T03:12:19.176Z,26.77
2019-03-28T03:15:01.182Z,25.83
2019-03-28T03:17:43.407Z,25.80
2019-03-28T03:20:25.914Z,26.23
2019-03-28T03:23:09.064Z,27.07
2019-03-28T03:25:50.788Z,28.33
2019-03-28T03:28:32.463Z,27.07
2019-03-28T03:31:20.486Z,27.50
2019-03-28T03:33:58.355Z,29.10
2019-03-28T03:36:31.079Z,26.97
2019-03-28T03:39:20.616Z,27.23
2019-03-28T03:42:02.919Z,28.03
2019-03-28T03:44:45.298Z,27.53
2019-03-28T03:47:27.614Z,28.00
2019-03-28T03:50:09.640Z,28.67
2019-03-28T03:52:51.696Z,27.10
2019-03-28T03:55:33.618Z,26.23
2019-03-28T03:58:18.604Z,26.90
2019-03-28T04:01:01.368Z,26.77
2019-03-28T04:03:43.078Z,25.90
2019-03-28T04:06:25.466Z,25.90
2019-03-28T04:09:07.296Z,26.50
2019-03-28T04:11:49.435Z,25.20
2019-03-28T04:14:31.682Z,26.53
2019-03-28T04:17:13.499Z,27.20
2019-03-28T04:19:55.539Z,27.43
2019-03-28T04:22:37.542Z,26.10
2019-03-28T04:25:20.403Z,26.27
2019-03-28T04:28:02.873Z,26.70
2019-03-28T04:30:45.164Z,26.07
2019-03-28T04:33:27.266Z,26.93
2019-03-28T04:36:08.795Z,27.80
2019-03-28T04:38:39.773Z,27.13
2019-03-28T04:41:21.885Z,27.60
2019-03-28T04:44:03.660Z,26.73
2019-03-28T04:46:45.670Z,27.30
2019-03-28T04:49:28.278Z,27.30
2019-03-28T04:52:09.903Z,27.47
2019-03-28T04:54:52.126Z,26.10
2019-03-28T04:57:34.639Z,26.63
2019-03-28T05:00:16.601Z,28.43
2019-03-28T05:02:58.815Z,29.23
2019-03-28T05:05:40.837Z,28.30
2019-03-28T05:08:22.835Z,26.50
2019-03-28T05:11:04.780Z,28.17
2019-03-28T05:13:47.132Z,27.37
2019-03-28T05:16:29.266Z,28.17
2019-03-28T05:19:11.530Z,26.93
2019-03-28T05:21:53.848Z,28.90
2019-03-28T05:24:35.990Z,28.03
2019-03-28T05:27:18.290Z,27.00
2019-03-28T05:30:00.515Z,28.80
2019-03-28T05:32:42.645Z,28.83
2019-03-28T05:38:46.646Z,27.83
2019-03-28T05:41:28.427Z,27.67
2019-03-28T05:43:59.246Z,27.47
2019-03-28T05:46:48.774Z,28.03
2019-03-28T05:49:19.558Z,28.10
2019-03-28T05:52:11.635Z,28.60
2019-03-28T05:54:47.507Z,28.00
2019-03-28T05:57:30.846Z,27.77
2019-03-28T06:00:12.730Z,28.00
2019-03-28T06:02:43.536Z,27.50
2019-03-28T06:05:27.535Z,27.10
2019-03-28T06:08:09.478Z,27.03
2019-03-28T06:10:40.394Z,28.33
2019-03-28T06:13:29.926Z,27.37
2019-03-28T06:16:11.822Z,28.17
2019-03-28T06:18:53.997Z,28.07
2019-03-28T06:21:35.984Z,28.37
2019-03-28T06:24:28.544Z,27.63
2019-03-28T06:27:10.899Z,29.03
2019-03-28T06:29:53.062Z,27.30
2019-03-28T06:32:42.726Z,29.23
2019-03-28T06:35:21.826Z,28.00
2019-03-28T06:38:02.826Z,28.23
2019-03-28T06:40:46.050Z,28.63
2019-03-28T06:43:28.314Z,27.57
2019-03-28T06:46:10.288Z,28.40
2019-03-28T06:48:41.147Z,28.07
2019-03-28T06:51:23.453Z,28.97
2019-03-28T06:54:05.546Z,28.93
2019-03-28T06:56:47.471Z,28.10
2019-03-28T06:59:37.177Z,28.67
2019-03-28T07:02:13.546Z,29.33
2019-03-28T07:04:56.407Z,29.27
2019-03-28T07:07:41.808Z,29.40
2019-03-28T07:10:23.733Z,27.90
2019-03-28T07:13:06.066Z,29.17
2019-03-28T07:15:48.324Z,27.47
2019-03-28T07:18:30.310Z,29.40
2019-03-28T07:21:12.454Z,29.40
2019-03-28T07:23:54.535Z,29.97
2019-03-28T07:26:36.622Z,30.03
2019-03-28T07:29:18.684Z,29.37
2019-03-28T07:32:00.775Z,30.03
2019-03-28T07:34:44.046Z,28.97
2019-03-28T07:37:28.090Z,28.97
2019-03-28T07:40:09.959Z,29.90
2019-03-28T07:42:51.986Z,29.47
2019-03-28T07:45:34.651Z,30.90
2019-03-28T07:48:16.969Z,29.40
2019-03-28T07:50:59.028Z,30.40
2019-03-28T07:53:40.835Z,31.20
2019-03-28T07:56:23.281Z,30.47
2019-03-28T07:59:05.828Z,30.03
2019-03-28T08:01:47.883Z,29.43
2019-03-28T08:04:31.866Z,32.00
2019-03-28T08:07:13.968Z,31.40
2019-03-28T08:09:57.107Z,33.30
2019-03-28T08:12:38.935Z,30.70
2019-03-28T08:15:21.128Z,32.33
2019-03-28T08:18:03.277Z,31.17
2019-03-28T08:20:45.291Z,31.67
2019-03-28T08:23:27.183Z,31.63
2019-03-28T08:26:13.097Z,31.90
2019-03-28T08:28:55.630Z,33.47
2019-03-28T08:31:40.826Z,32.73
2019-03-28T08:34:25.101Z,34.00
2019-03-28T08:37:07.261Z,33.40
2019-03-28T08:39:50.203Z,35.10
2019-03-28T08:42:33.386Z,34.33
2019-03-28T08:45:15.966Z,34.03
2019-03-28T08:47:58.502Z,33.97
2019-03-28T08:50:41.892Z,33.27
2019-03-28T08:53:23.629Z,32.57
2019-03-28T08:56:07.916Z,33.27
2019-03-28T08:58:49.838Z,33.50
2019-03-28T09:04:15.895Z,30.33
2019-03-28T09:06:57.977Z,34.20
2019-03-28T09:09:40.786Z,33.03
2019-03-28T09:12:23.126Z,34.40
2019-03-28T09:15:04.911Z,35.00
2019-03-28T09:17:47.269Z,35.20
2019-03-28T09:20:29.899Z,36.63
2019-03-28T09:23:11.715Z,34.25
2019-03-28T09:26:04.537Z,34.03
2019-03-28T09:28:58.210Z,36.23
2019-03-28T09:34:27.478Z,37.73
2019-03-28T09:37:09.299Z,34.63
2019-03-28T09:39:51.252Z,33.57
2019-03-28T09:42:33.258Z,33.13
2019-03-28T09:48:27.192Z,35.90
2019-03-28T09:51:09.851Z,32.87
2019-03-28T09:53:52.446Z,35.80
2019-03-28T09:56:37.554Z,37.43
2019-03-28T09:59:19.798Z,37.50
2019-03-28T10:02:01.969Z,37.10
2019-03-28T10:04:44.998Z,37.07
2019-03-28T10:07:27.283Z,37.27
2019-03-28T10:10:09.418Z,39.53
2019-03-28T10:12:51.442Z,39.33
2019-03-28T10:15:36.668Z,39.53
2019-03-28T10:18:17.709Z,38.10
2019-03-28T10:21:01.316Z,38.90
2019-03-28T10:23:44.353Z,36.30
2019-03-28T10:26:26.999Z,37.00
2019-03-28T10:29:11.380Z,37.47
2019-03-28T10:31:53.320Z,37.23
2019-03-28T10:34:35.355Z,37.37
2019-03-28T10:37:18.071Z,37.87
2019-03-28T10:40:01.757Z,38.03
2019-03-28T10:42:45.035Z,38.47
2019-03-28T10:45:28.677Z,36.87
2019-03-28T10:48:10.177Z,37.03
2019-03-28T10:50:52.528Z,37.50
2019-03-28T10:53:34.749Z,36.73
2019-03-28T10:56:21.882Z,36.93
2019-03-28T10:59:01.258Z,35.83
2019-03-28T11:01:49.994Z,34.83
2019-03-28T11:04:26.945Z,34.73
2019-03-28T11:07:10.030Z,31.63
2019-03-28T11:09:52.084Z,30.67
2019-03-28T11:12:33.985Z,29.53
2019-03-28T11:15:15.899Z,26.70
2019-03-28T11:17:59.219Z,28.90
2019-03-28T11:20:41.475Z,26.33
2019-03-28T11:23:24.819Z,27.60
2019-03-28T11:26:06.788Z,27.03
2019-03-28T11:28:49.021Z,25.77
2019-03-28T11:31:31.082Z,22.53
2019-03-28T11:34:13.457Z,23.37
2019-03-28T11:36:56.709Z,20.00
2019-03-28T11:39:38.704Z,23.07
2019-03-28T11:42:21.256Z,23.53
2019-03-28T11:45:04.568Z,23.40
2019-03-28T11:47:48.774Z,22.87
2019-03-28T11:50:30.663Z,23.67
2019-03-28T11:53:13.571Z,23.13
2019-03-28T11:55:56.143Z,17.60
2019-03-28T11:58:38.715Z,16.43
2019-03-28T12:01:21.110Z,17.77
2019-03-28T12:04:03.488Z,18.03
2019-03-28T12:09:34.630Z,18.60
2019-03-28T12:12:16.677Z,17.57
2019-03-28T12:14:58.694Z,15.93
2019-03-28T12:17:42.025Z,16.23
2019-03-28T12:20:26.742Z,15.57
2019-03-28T12:23:09.116Z,13.40
2019-03-28T12:25:51.321Z,13.00
2019-03-28T12:28:33.647Z,12.27
2019-03-28T12:31:15.638Z,12.10
2019-03-28T12:33:57.921Z,15.17
2019-03-28T12:36:39.717Z,14.57
2019-03-28T12:39:23.622Z,16.03
2019-03-28T12:42:05.912Z,16.30
2019-03-28T12:44:57.039Z,15.37
2019-03-28T12:47:42.180Z,16.03
2019-03-28T12:50:17.102Z,16.73
2019-03-28T12:53:00.313Z,18.37
2019-03-28T12:55:42.581Z,18.00
2019-03-28T12:58:24.249Z,19.87
2019-03-28T13:01:06.202Z,19.20
2019-03-28T13:03:50.865Z,18.93
2019-03-28T13:06:37.200Z,17.47
2019-03-28T13:09:19.373Z,19.43
2019-03-28T13:12:01.668Z,21.30
2019-03-28T13:14:44.013Z,22.30
2019-03-28T13:20:22.243Z,23.07
2019-03-28T13:23:05.624Z,22.67
2019-03-28T13:25:47.622Z,21.60
2019-03-28T13:28:30.031Z,22.57
2019-03-28T13:31:12.621Z,22.97
2019-03-28T13:33:55.649Z,23.63
2019-03-28T13:36:38.011Z,21.97
2019-03-28T13:39:23.115Z,22.93
2019-03-28T13:42:05.341Z,23.40
2019-03-28T13:44:48.632Z,22.30
2019-03-28T13:47:30.748Z,23.43
2019-03-28T13:50:13.008Z,22.70
2019-03-28T13:52:55.874Z,23.80
2019-03-28T13:55:37.681Z,22.93
2019-03-28T13:58:20.145Z,24.10
2019-03-28T14:01:02.836Z,22.30
2019-03-28T14:03:45.337Z,24.20
2019-03-28T14:06:30.631Z,22.87
2019-03-28T14:09:16.411Z,23.20
2019-03-28T14:11:58.487Z,23.73
2019-03-28T14:14:29.413Z,22.17
2019-03-28T14:17:19.617Z,23.03
2019-03-28T14:19:57.391Z,22.73
2019-03-28T14:22:47.108Z,23.10
2019-03-28T14:25:29.194Z,24.13
2019-03-28T14:28:01.598Z,23.47
2019-03-28T14:33:44.974Z,25.00
2019-03-28T14:36:26.970Z,24.63
2019-03-28T14:39:09.070Z,24.63
2019-03-28T14:41:51.229Z,23.63
2019-03-28T14:44:33.408Z,21.27
2019-03-28T14:47:15.488Z,21.50
2019-03-28T14:49:58.767Z,22.60
2019-03-28T14:52:40.906Z,21.93
2019-03-28T14:55:23.026Z,21.67
2019-03-28T14:58:05.408Z,25.20
2019-03-28T15:00:48.112Z,25.17
2019-03-28T15:03:30.617Z,25.10
2019-03-28T15:06:12.816Z,26.67
2019-03-28T15:08:54.913Z,24.17
2019-03-28T15:11:38.669Z,24.97
2019-03-28T15:14:20.884Z,25.20
2019-03-28T15:17:03.812Z,24.67
2019-03-28T15:19:34.873Z,25.30
2019-03-28T15:22:17.284Z,24.50
2019-03-28T15:24:59.415Z,22.90
2019-03-28T15:27:42.586Z,20.10
2019-03-28T15:30:27.510Z,22.57
2019-03-28T15:33:09.646Z,21.97
2019-03-28T15:35:51.258Z,22.47
2019-03-28T15:38:35.219Z,22.50
2019-03-28T15:41:20.751Z,22.80
2019-03-28T15:44:02.759Z,22.13
2019-03-28T15:46:44.902Z,21.53
2019-03-28T15:52:23.298Z,22.27
2019-03-28T15:55:05.440Z,21.43
2019-03-28T15:57:47.704Z,22.47
2019-03-28T16:00:31.213Z,21.70
2019-03-28T16:03:13.543Z,21.47
2019-03-28T16:05:58.527Z,22.13
2019-03-28T16:08:41.202Z,21.67
2019-03-28T16:11:26.837Z,22.83
2019-03-28T16:14:09.751Z,21.53
2019-03-28T16:16:51.495Z,21.83
2019-03-28T16:19:33.486Z,22.67
2019-03-28T16:22:15.713Z,21.80
2019-03-28T16:24:57.655Z,21.57
2019-03-28T16:27:41.499Z,21.13
2019-03-28T16:30:24.330Z,21.47
2019-03-28T16:33:07.170Z,21.03
2019-03-28T16:35:48.702Z,21.07
2019-03-28T16:38:32.873Z,21.20
2019-03-28T16:41:20.359Z,21.83
2019-03-28T16:44:02.551Z,20.80
2019-03-28T16:46:44.334Z,22.37
2019-03-28T16:49:26.671Z,20.40
2019-03-28T16:52:08.519Z,21.10
2019-03-28T16:54:50.394Z,20.80
2019-03-28T16:57:32.590Z,22.10
2019-03-28T17:00:14.689Z,20.80
2019-03-28T17:02:56.726Z,20.53
2019-03-28T17:05:38.879Z,20.33
2019-03-28T17:08:09.997Z,20.80
2019-03-28T17:10:52.128Z,20.50
2019-03-28T17:13:34.442Z,19.57
2019-03-28T17:16:16.869Z,19.13
2019-03-28T17:18:48.169Z,19.23
2019-03-28T17:21:30.877Z,17.93
2019-03-28T17:24:13.352Z,17.47
2019-03-28T17:26:55.577Z,18.50
2019-03-28T17:29:37.740Z,18.23
2019-03-28T17:32:19.842Z,17.00
2019-03-28T17:35:01.543Z,18.63
2019-03-28T17:37:45.603Z,17.87
2019-03-28T17:40:27.306Z,18.90
2019-03-28T17:43:09.551Z,18.63
2019-03-28T17:45:52.160Z,19.70
2019-03-28T17:48:34.648Z,19.43
2019-03-28T17:51:16.406Z,19.60
2019-03-28T17:53:58.462Z,19.67
2019-03-28T17:56:40.849Z,18.77
2019-03-28T17:59:24.118Z,20.10
2019-03-28T18:05:09.740Z,19.40
2019-03-28T18:07:51.631Z,20.00
2019-03-28T18:10:33.911Z,19.27
2019-03-28T18:13:16.123Z,19.70
2019-03-28T18:15:58.443Z,18.27
2019-03-28T18:18:42.135Z,19.67
2019-03-28T18:21:24.004Z,19.27
2019-03-28T18:24:06.008Z,18.83
2019-03-28T18:26:47.849Z,19.00
2019-03-28T18:29:30.181Z,19.17
2019-03-28T18:32:12.332Z,19.70
2019-03-28T18:35:05.108Z,19.00
2019-03-28T18:37:38.344Z,19.67
2019-03-28T18:40:21.878Z,18.10
2019-03-28T18:43:03.942Z,21.30
2019-03-28T18:45:45.678Z,19.70
2019-03-28T18:51:29.162Z,21.13
2019-03-28T18:57:13.695Z,22.37
2019-03-28T18:59:56.421Z,22.40
2019-03-28T19:02:27.303Z,21.17
2019-03-28T19:05:19.524Z,20.37
2019-03-28T19:07:54.561Z,20.23
2019-03-28T19:10:38.635Z,19.30
2019-03-28T19:13:20.645Z,21.40
2019-03-28T19:16:02.938Z,22.07
2019-03-28T19:18:45.040Z,22.27
2019-03-28T19:21:27.791Z,22.70
2019-03-28T19:23:59.156Z,21.37
2019-03-28T19:26:40.696Z,22.27
2019-03-28T19:29:22.542Z,22.20
2019-03-28T19:32:04.566Z,21.67
2019-03-28T19:34:46.657Z,21.70
2019-03-28T19:37:30.391Z,22.43
2019-03-28T19:40:14.290Z,22.70
2019-03-28T19:42:57.095Z,21.93
2019-03-28T19:45:39.025Z,21.20
2019-03-28T19:48:21.358Z,21.83
2019-03-28T19:51:03.320Z,22.97
2019-03-28T19:53:45.379Z,22.67
2019-03-28T19:56:16.345Z,24.43
2019-03-28T19:58:59.125Z,24.07
2019-03-28T20:01:41.517Z,24.07
2019-03-28T20:04:12.384Z,24.73
2019-03-28T20:06:54.706Z,26.00
2019-03-28T20:09:37.660Z,25.97
2019-03-28T20:12:08.511Z,25.57
2019-03-28T20:14:50.677Z,25.47
2019-03-28T20:17:32.543Z,25.00
2019-03-28T20:20:14.401Z,24.87
2019-03-28T20:22:56.792Z,26.17
2019-03-28T20:28:17.887Z,26.77
2019-03-28T20:30:59.678Z,27.13
2019-03-28T20:33:41.424Z,25.43
2019-03-28T20:36:37.073Z,26.70
2019-03-28T20:39:08.482Z,26.87
2019-03-28T20:41:50.038Z,25.17
2019-03-28T20:44:33.087Z,26.47
2019-03-28T20:47:15.317Z,27.33
2019-03-28T20:49:57.543Z,26.93
2019-03-28T20:52:39.238Z,27.60
2019-03-28T20:55:10.318Z,26.37
2019-03-28T20:57:52.181Z,27.60
2019-03-28T21:00:35.354Z,27.20
2019-03-28T21:03:17.454Z,28.23
2019-03-28T21:05:59.448Z,28.40
2019-03-28T21:08:41.695Z,28.07
2019-03-28T21:11:12.724Z,27.63
2019-03-28T21:13:54.125Z,26.27
2019-03-28T21:16:36.271Z,25.37
2019-03-28T21:19:07.127Z,26.30
2019-03-28T21:21:58.326Z,25.67
2019-03-28T21:24:40.576Z,25.27
2019-03-28T21:27:22.832Z,26.33
2019-03-28T21:30:04.736Z,25.33
2019-03-28T21:32:55.361Z,25.50
2019-03-28T21:35:32.092Z,26.20
2019-03-28T21:38:17.307Z,26.63
2019-03-28T21:40:59.839Z,25.27
2019-03-28T21:43:42.171Z,25.90
2019-03-28T21:46:24.076Z,26.20
2019-03-28T21:48:54.931Z,26.87
2019-03-28T21:51:25.716Z,26.10
2019-03-28T21:54:07.612Z,26.20
2019-03-28T21:56:50.060Z,26.33
2019-03-28T21:59:32.736Z,24.07
2019-03-28T22:02:15.205Z,24.97
2019-03-28T22:04:57.647Z,25.60
2019-03-28T22:07:41.125Z,26.83
2019-03-28T22:10:22.685Z,27.17
2019-03-28T22:13:04.396Z,27.57
2019-03-28T22:15:46.241Z,27.30
2019-03-28T22:18:18.083Z,26.27
2019-03-28T22:21:00.337Z,26.07
2019-03-28T22:23:42.214Z,26.30
2019-03-28T22:26:24.649Z,26.27
2019-03-28T22:29:06.854Z,25.97
2019-03-28T22:31:49.174Z,25.77
2019-03-28T22:34:31.326Z,24.70
2019-03-28T22:37:13.614Z,23.43
2019-03-28T22:39:57.558Z,24.47
2019-03-28T22:42:28.358Z,23.77
2019-03-28T22:45:19.588Z,24.07
2019-03-28T22:48:10.785Z,24.50
2019-03-28T22:50:45.631Z,23.63
2019-03-28T22:53:27.954Z,24.50
2019-03-28T22:55:58.828Z,25.13
2019-03-28T22:58:40.362Z,24.10
2019-03-28T23:01:22.410Z,24.87
2019-03-28T23:04:05.585Z,24.07
2019-03-28T23:06:49.168Z,24.20
2019-03-28T23:09:31.606Z,25.50
2019-03-28T23:12:13.434Z,25.17
2019-03-28T23:14:55.741Z,25.50
2019-03-28T23:17:26.649Z,26.87
2019-03-28T23:20:16.183Z,25.57
2019-03-28T23:22:58.141Z,25.03
2019-03-28T23:25:28.926Z,25.97
2019-03-28T23:28:18.974Z,26.90
2019-03-28T23:31:21.155Z,26.90
2019-03-28T23:34:03.067Z,26.90
2019-03-28T23:36:45.074Z,26.30
2019-03-28T23:39:15.963Z,28.43
2019-03-28T23:42:05.617Z,27.00
2019-03-28T23:44:47.734Z,27.07
2019-03-28T23:47:30.361Z,27.10
2019-03-28T23:50:12.656Z,28.43
2019-03-28T23:52:54.968Z,28.13
2019-03-28T23:55:36.441Z,28.13
2019-03-28T23:58:18.785Z,27.40
